Time;durP1;ratioP1;P1;durP2;ratioP2;P2;SDS_P1;SDS_P2;PMS_P1;PMS_P2;Temp;Humidity;BMP_temperature;BMP_pressure;BME280_temperature;BME280_humidity;BME280_pressure;Samples;Min_cycle;Max_cycle;Signal;HPM_P1;HPM_P2
2023/06/29 00:00:36;;;;;;;;;;;20.10;75.80;;;;;;4890014;28;20169;-87
2023/06/29 00:03:11;;;;;;;;;;;20.10;76.00;;;;;;4890905;28;20211;-87
2023/06/29 00:05:46;;;;;;;;;;;20.10;75.00;;;;;;4926407;28;20388;-87
2023/06/29 00:08:25;;;;;;;;;;;20.10;75.60;;;;;;4920660;28;20286;-87
2023/06/29 00:10:51;;;;;;;;;;;20.10;75.50;;;;;;4961971;28;20086;-87
2023/06/29 00:13:23;;;;;;;;;;;20.10;75.50;;;;;;4938345;28;20395;-87
2023/06/29 00:15:56;;;;;;;;;;;20.10;74.90;;;;;;4944913;28;20291;-87
2023/06/29 00:19:11;;;;;;;;;;;;;;;;;;;;;
2023/06/29 00:22:12;;;;;;;;;;;;;;;;;;;;;
2023/06/29 00:46:49;;;;;;;;;;;20.00;75.40;;;;;;5106051;28;19912;-85
2023/06/29 00:49:17;;;;;;;;;;;20.10;75.60;;;;;;5111640;28;19912;-84
2023/06/29 00:57:35;;;;;;;;;;;20.10;74.20;;;;;;5102117;28;19919;-85
2023/06/29 01:00:27;;;;;;;;;;;20.10;74.70;;;;;;5102336;28;20337;-85
2023/06/29 01:02:52;;;;;;;;;;;20.10;75.30;;;;;;5098542;28;20006;-84
2023/06/29 01:06:00;;;;;;;;;;;;;;;;;;;;;
2023/06/29 01:11:32;;;;;;;;;;;20.10;75.80;;;;;;5102661;28;20690;-86
2023/06/29 01:14:01;;;;;;;;;;;20.10;75.20;;;;;;5092716;28;19912;-86
2023/06/29 01:16:32;;;;;;;;;;;20.10;75.20;;;;;;5104068;28;19916;-86
2023/06/29 01:19:13;;;;;;;;;;;;;;;;;;;;;
2023/06/29 01:21:47;;;;;;;;;;;20.00;75.40;;;;;;5106152;28;19922;-86
2023/06/29 01:24:14;;;;;;;;;;;20.10;75.10;;;;;;5081245;28;19923;-86
2023/06/29 01:26:43;;;;;;;;;;;20.10;74.50;;;;;;5087503;28;20363;-86
2023/06/29 01:29:11;;;;;;;;;;;20.10;74.20;;;;;;5084980;28;19916;-85
2023/06/29 01:31:44;;;;;;;;;;;20.00;74.50;;;;;;5097099;28;20368;-86
2023/06/29 01:34:14;;;;;;;;;;;20.00;75.40;;;;;;5076093;28;19978;-87
2023/06/29 01:37:03;;;;;;;;;;;20.00;75.40;;;;;;5110575;28;20371;-86
2023/06/29 01:39:47;;;;;;;;;;;20.00;75.70;;;;;;5072655;28;20290;-86
2023/06/29 01:42:59;;;;;;;;;;;20.00;75.50;;;;;;5091947;28;19916;-87
2023/06/29 01:45:37;;;;;;;;;;;;;;;;;;;;;
2023/06/29 01:48:04;;;;;;;;;;;20.00;75.00;;;;;;5109729;28;19928;-86
2023/06/29 01:50:39;;;;;;;;;;;20.10;74.90;;;;;;5090943;28;19941;-86
2023/06/29 01:53:08;;;;;;;;;;;20.00;74.60;;;;;;5093898;28;19911;-86
2023/06/29 01:58:34;;;;;;;;;;;20.00;74.70;;;;;;5097726;28;19912;-86
2023/06/29 02:01:19;;;;;;;;;;;20.00;74.60;;;;;;5093529;28;20427;-87
2023/06/29 02:04:05;;;;;;;;;;;20.10;74.40;;;;;;5084842;28;19916;-86
2023/06/29 02:06:56;;;;;;;;;;;20.00;75.00;;;;;;5092508;28;19908;-87
2023/06/29 02:09:22;;;;;;;;;;;20.00;75.00;;;;;;5090524;28;19915;-86
2023/06/29 02:11:52;;;;;;;;;;;20.00;74.50;;;;;;5088623;28;19941;-86
2023/06/29 02:14:18;;;;;;;;;;;20.00;74.40;;;;;;5092798;28;19911;-86
2023/06/29 02:16:50;;;;;;;;;;;20.00;74.30;;;;;;5104661;28;19926;-86
2023/06/29 02:19:18;;;;;;;;;;;20.00;74.60;;;;;;5093580;28;19919;-86
2023/06/29 02:22:07;;;;;;;;;;;20.00;74.20;;;;;;5089817;28;19912;-86
2023/06/29 02:24:40;;;;;;;;;;;20.00;74.30;;;;;;5076503;28;19916;-86
2023/06/29 02:27:05;;;;;;;;;;;20.00;74.40;;;;;;5098719;22;19935;-88
2023/06/29 02:29:31;;;;;;;;;;;20.00;74.40;;;;;;5072585;28;20317;-88
2023/06/29 02:31:57;;;;;;;;;;;20.00;74.20;;;;;;5070795;28;19908;-88
2023/06/29 02:34:22;;;;;;;;;;;20.00;73.80;;;;;;5070234;28;19963;-88
2023/06/29 02:36:47;;;;;;;;;;;20.00;74.30;;;;;;5069390;28;19908;-88
2023/06/29 02:39:13;;;;;;;;;;;20.00;74.50;;;;;;5046980;28;19961;-88
2023/06/29 02:41:38;;;;;;;;;;;19.90;74.30;;;;;;5049338;28;20007;-87
2023/06/29 02:44:04;;;;;;;;;;;19.90;74.20;;;;;;5059191;28;20019;-88
2023/06/29 02:46:29;;;;;;;;;;;20.00;73.60;;;;;;5046670;28;19909;-88
2023/06/29 02:48:55;;;;;;;;;;;20.00;73.70;;;;;;5069425;28;19913;-88
2023/06/29 02:51:20;;;;;;;;;;;20.00;73.30;;;;;;5050972;28;20302;-88
2023/06/29 02:53:46;;;;;;;;;;;20.00;73.70;;;;;;5067367;28;19920;-88
2023/06/29 02:56:11;;;;;;;;;;;20.00;74.00;;;;;;5050145;28;20257;-88
2023/06/29 02:58:37;;;;;;;;;;;20.00;73.90;;;;;;5060527;28;19916;-88
2023/06/29 03:01:02;;;;;;;;;;;20.00;74.10;;;;;;5052262;28;19916;-88
2023/06/29 03:03:27;;;;;;;;;;;20.00;74.10;;;;;;5048060;28;19999;-88
2023/06/29 03:05:53;;;;;;;;;;;19.90;74.20;;;;;;5068566;28;20324;-88
2023/06/29 03:08:18;;;;;;;;;;;20.00;74.00;;;;;;5066454;28;19920;-88
2023/06/29 03:10:44;;;;;;;;;;;20.00;74.20;;;;;;5062316;28;20271;-88
2023/06/29 03:13:09;;;;;;;;;;;20.00;73.90;;;;;;5056884;28;20012;-88
2023/06/29 03:15:35;;;;;;;;;;;19.90;74.30;;;;;;5061948;28;19916;-88
2023/06/29 03:18:00;;;;;;;;;;;19.90;74.60;;;;;;5069278;28;19909;-88
2023/06/29 03:20:26;;;;;;;;;;;19.90;74.40;;;;;;5059669;28;19913;-88
2023/06/29 03:22:51;;;;;;;;;;;19.90;74.60;;;;;;5069525;28;21022;-88
2023/06/29 03:25:16;;;;;;;;;;;19.90;74.70;;;;;;5066748;28;19987;-88
2023/06/29 03:27:42;;;;;;;;;;;19.80;74.80;;;;;;5062647;28;19924;-88
2023/06/29 03:30:08;;;;;;;;;;;19.80;74.50;;;;;;5051584;28;19920;-88
2023/06/29 03:32:33;;;;;;;;;;;20.00;73.70;;;;;;5060532;28;19915;-88
2023/06/29 03:34:59;;;;;;;;;;;20.00;73.50;;;;;;5059859;28;19938;-88
2023/06/29 03:37:24;;;;;;;;;;;20.10;73.10;;;;;;5063829;28;19999;-88
2023/06/29 03:39:50;;;;;;;;;;;20.10;73.00;;;;;;5060506;28;20001;-89
2023/06/29 03:42:15;;;;;;;;;;;20.00;73.50;;;;;;5055494;28;19927;-88
2023/06/29 03:44:41;;;;;;;;;;;20.10;73.80;;;;;;5066036;28;19920;-88
2023/06/29 03:47:06;;;;;;;;;;;20.10;73.70;;;;;;5070656;28;19991;-88
2023/06/29 03:49:32;;;;;;;;;;;20.10;73.30;;;;;;5052929;28;19966;-88
2023/06/29 03:51:58;;;;;;;;;;;20.10;73.40;;;;;;5058737;28;20281;-88
2023/06/29 03:54:23;;;;;;;;;;;20.10;73.30;;;;;;5062574;28;20378;-88
2023/06/29 03:56:49;;;;;;;;;;;20.10;73.10;;;;;;5059583;28;19913;-88
2023/06/29 03:59:14;;;;;;;;;;;20.10;73.20;;;;;;5059149;28;19921;-88
2023/06/29 04:01:40;;;;;;;;;;;20.10;73.50;;;;;;5057845;28;19986;-88
2023/06/29 04:04:05;;;;;;;;;;;20.10;73.20;;;;;;5051564;28;20344;-88
2023/06/29 04:06:31;;;;;;;;;;;20.20;73.10;;;;;;5053898;28;19915;-88
2023/06/29 04:08:56;;;;;;;;;;;20.10;73.70;;;;;;5055337;28;19905;-88
2023/06/29 04:11:22;;;;;;;;;;;20.20;73.80;;;;;;5052915;28;19913;-88
2023/06/29 04:13:47;;;;;;;;;;;20.10;73.80;;;;;;5071900;28;19995;-88
2023/06/29 04:16:13;;;;;;;;;;;20.20;72.90;;;;;;5055712;28;19954;-88
2023/06/29 04:18:38;;;;;;;;;;;20.10;73.00;;;;;;5065053;28;19916;-88
2023/06/29 04:21:04;;;;;;;;;;;20.20;72.50;;;;;;5069924;28;19913;-88
2023/06/29 04:23:29;;;;;;;;;;;20.30;73.30;;;;;;5064323;28;20329;-88
2023/06/29 04:25:55;;;;;;;;;;;20.30;72.90;;;;;;5053786;28;19917;-88
2023/06/29 04:28:20;;;;;;;;;;;20.30;73.50;;;;;;5053659;28;19920;-88
2023/06/29 04:30:45;;;;;;;;;;;20.30;74.00;;;;;;5053616;28;19966;-87
2023/06/29 04:33:11;;;;;;;;;;;20.30;73.90;;;;;;5049280;28;19912;-87
2023/06/29 04:35:44;;;;;;;;;;;20.20;73.40;;;;;;5051115;28;19916;-88
2023/06/29 04:38:10;;;;;;;;;;;20.30;71.80;;;;;;5070073;28;19908;-88
2023/06/29 04:40:36;;;;;;;;;;;20.30;73.30;;;;;;5052457;28;19917;-88
2023/06/29 04:43:02;;;;;;;;;;;20.30;73.60;;;;;;5055723;28;19922;-88
2023/06/29 04:45:28;;;;;;;;;;;20.30;73.00;;;;;;5057208;28;19919;-88
2023/06/29 04:47:54;;;;;;;;;;;20.30;73.20;;;;;;5066540;28;20259;-88
2023/06/29 04:50:25;;;;;;;;;;;20.40;73.00;;;;;;5068861;28;19912;-88
2023/06/29 04:52:52;;;;;;;;;;;20.40;73.10;;;;;;5057854;28;19920;-88
2023/06/29 04:55:17;;;;;;;;;;;20.50;72.30;;;;;;5053160;28;19954;-88
2023/06/29 04:57:43;;;;;;;;;;;20.50;72.30;;;;;;5054914;28;20325;-88
2023/06/29 05:00:11;;;;;;;;;;;20.50;72.50;;;;;;5049296;28;20026;-88
2023/06/29 05:02:40;;;;;;;;;;;20.50;72.10;;;;;;5061183;28;20274;-88
2023/06/29 05:05:06;;;;;;;;;;;20.50;71.70;;;;;;5068698;28;19916;-87
2023/06/29 05:07:32;;;;;;;;;;;20.60;71.50;;;;;;5054040;28;20397;-88
2023/06/29 05:09:58;;;;;;;;;;;20.60;71.60;;;;;;5054302;28;20390;-88
2023/06/29 05:12:38;;;;;;;;;;;20.60;72.00;;;;;;5050843;28;19912;-90
2023/06/29 05:15:03;;;;;;;;;;;20.60;72.50;;;;;;5033237;28;19927;-89
2023/06/29 05:17:29;;;;;;;;;;;20.50;72.30;;;;;;5063622;28;19913;-86
2023/06/29 05:19:54;;;;;;;;;;;20.60;72.60;;;;;;5075271;28;19962;-87
2023/06/29 05:22:20;;;;;;;;;;;20.60;72.30;;;;;;5078495;28;19958;-88
2023/06/29 05:24:45;;;;;;;;;;;20.70;71.60;;;;;;5056143;28;19921;-85
2023/06/29 05:27:11;;;;;;;;;;;20.60;72.30;;;;;;5052050;28;19999;-85
2023/06/29 05:29:37;;;;;;;;;;;20.70;71.90;;;;;;5060936;28;19946;-88
2023/06/29 05:32:03;;;;;;;;;;;20.70;72.70;;;;;;5070292;28;19920;-87
2023/06/29 05:34:28;;;;;;;;;;;20.80;72.00;;;;;;5064478;28;19923;-88
2023/06/29 05:36:54;;;;;;;;;;;20.70;72.00;;;;;;5071704;28;19919;-88
2023/06/29 05:39:19;;;;;;;;;;;20.70;71.90;;;;;;5050930;28;19919;-88
2023/06/29 05:41:45;;;;;;;;;;;20.70;72.70;;;;;;5045920;28;19921;-88
2023/06/29 05:44:10;;;;;;;;;;;20.80;72.30;;;;;;5052821;28;19918;-88
2023/06/29 05:46:36;;;;;;;;;;;20.80;72.40;;;;;;5052518;28;19959;-89
2023/06/29 05:49:01;;;;;;;;;;;21.00;71.40;;;;;;5051536;28;20011;-87
2023/06/29 05:51:27;;;;;;;;;;;21.00;71.80;;;;;;5062911;28;20014;-89
2023/06/29 05:53:52;;;;;;;;;;;21.00;72.20;;;;;;5062423;28;19917;-88
2023/06/29 05:56:18;;;;;;;;;;;21.00;72.20;;;;;;5048922;28;19913;-91
2023/06/29 05:58:43;;;;;;;;;;;21.10;71.90;;;;;;5051207;28;20069;-87
2023/06/29 06:01:10;;;;;;;;;;;21.10;72.00;;;;;;5069285;28;19916;-88
2023/06/29 06:03:36;;;;;;;;;;;21.20;71.40;;;;;;5068737;28;19944;-88
2023/06/29 06:06:01;;;;;;;;;;;21.20;71.70;;;;;;5064412;28;19959;-87
2023/06/29 06:08:27;;;;;;;;;;;21.20;72.10;;;;;;5069437;28;19909;-87
2023/06/29 06:10:52;;;;;;;;;;;21.20;71.50;;;;;;5066193;28;20022;-88
2023/06/29 06:13:18;;;;;;;;;;;21.20;70.60;;;;;;5044631;28;20345;-88
2023/06/29 06:15:43;;;;;;;;;;;21.20;71.30;;;;;;5058157;28;19928;-87
2023/06/29 06:18:09;;;;;;;;;;;21.30;70.90;;;;;;5052660;28;19919;-87
2023/06/29 06:20:34;;;;;;;;;;;21.60;70.10;;;;;;5052708;28;19916;-88
2023/06/29 06:23:00;;;;;;;;;;;21.50;70.80;;;;;;5068457;28;19923;-88
2023/06/29 06:25:26;;;;;;;;;;;21.50;71.20;;;;;;5045998;28;20540;-89
2023/06/29 06:28:10;;;;;;;;;;;21.60;69.90;;;;;;5051665;28;19948;-91
2023/06/29 06:30:36;;;;;;;;;;;21.70;70.30;;;;;;5066239;28;20026;-87
2023/06/29 06:33:01;;;;;;;;;;;21.90;69.20;;;;;;5041750;28;19996;-88
2023/06/29 06:35:28;;;;;;;;;;;21.80;69.00;;;;;;5042811;28;20094;-87
2023/06/29 06:37:54;;;;;;;;;;;21.80;69.50;;;;;;5059240;28;19932;-87
2023/06/29 06:40:19;;;;;;;;;;;21.90;69.40;;;;;;5066072;28;19912;-87
2023/06/29 06:42:45;;;;;;;;;;;21.80;68.30;;;;;;5044370;28;19939;-88
2023/06/29 06:45:10;;;;;;;;;;;21.80;68.90;;;;;;5067745;28;19924;-88
2023/06/29 06:47:36;;;;;;;;;;;21.90;69.10;;;;;;5068423;28;19931;-88
2023/06/29 06:50:02;;;;;;;;;;;21.90;69.80;;;;;;5065622;28;19912;-87
2023/06/29 06:52:28;;;;;;;;;;;22.10;68.60;;;;;;5054248;28;19913;-87
2023/06/29 06:54:53;;;;;;;;;;;22.10;68.00;;;;;;5051310;28;19922;-86
2023/06/29 06:57:19;;;;;;;;;;;22.00;69.30;;;;;;5067261;28;19912;-87
2023/06/29 06:59:45;;;;;;;;;;;22.00;69.50;;;;;;5059685;28;19970;-88
2023/06/29 07:02:11;;;;;;;;;;;21.90;68.20;;;;;;5079324;28;19920;-87
2023/06/29 07:04:37;;;;;;;;;;;21.90;68.30;;;;;;5069809;28;19904;-87
2023/06/29 07:07:03;;;;;;;;;;;22.00;69.60;;;;;;5075067;28;19923;-88
2023/06/29 07:09:28;;;;;;;;;;;22.10;69.80;;;;;;5065179;28;19966;-88
2023/06/29 07:11:54;;;;;;;;;;;22.10;70.00;;;;;;5061142;28;19944;-88
2023/06/29 07:14:21;;;;;;;;;;;22.30;68.60;;;;;;5047960;28;19995;-88
2023/06/29 07:16:47;;;;;;;;;;;22.30;66.90;;;;;;5083876;28;19951;-87
2023/06/29 07:19:13;;;;;;;;;;;22.30;67.00;;;;;;5070595;28;19936;-88
2023/06/29 07:21:41;;;;;;;;;;;22.60;66.80;;;;;;5052263;28;19916;-88
2023/06/29 07:24:07;;;;;;;;;;;22.60;66.30;;;;;;5053458;28;20326;-88
2023/06/29 07:26:40;;;;;;;;;;;22.70;65.60;;;;;;5063406;28;19920;-89
2023/06/29 07:29:06;;;;;;;;;;;22.80;65.00;;;;;;5047618;28;19912;-88
2023/06/29 07:31:32;;;;;;;;;;;22.90;64.90;;;;;;5065350;28;19924;-88
2023/06/29 07:33:57;;;;;;;;;;;23.00;64.70;;;;;;5070703;28;19974;-88
2023/06/29 07:36:24;;;;;;;;;;;23.00;64.90;;;;;;5065212;28;19962;-88
2023/06/29 07:38:50;;;;;;;;;;;23.30;63.80;;;;;;5064142;28;20388;-87
2023/06/29 07:41:16;;;;;;;;;;;23.30;63.90;;;;;;5046543;28;19923;-85
2023/06/29 07:43:45;;;;;;;;;;;23.40;63.50;;;;;;5066834;28;20003;-86
2023/06/29 07:46:11;;;;;;;;;;;23.30;64.50;;;;;;5065238;28;19942;-86
2023/06/29 07:48:36;;;;;;;;;;;23.20;65.30;;;;;;5045063;28;19999;-86
2023/06/29 07:51:03;;;;;;;;;;;23.10;66.80;;;;;;5064304;28;19921;-88
2023/06/29 07:53:29;;;;;;;;;;;23.20;66.20;;;;;;5067029;28;19912;-88
2023/06/29 07:55:55;;;;;;;;;;;23.30;66.80;;;;;;5063790;28;20279;-88
2023/06/29 07:58:20;;;;;;;;;;;23.40;65.60;;;;;;5051486;28;19923;-88
2023/06/29 08:00:46;;;;;;;;;;;23.60;65.50;;;;;;5064865;28;19912;-88
2023/06/29 08:03:11;;;;;;;;;;;23.50;65.60;;;;;;5065682;28;20373;-88
2023/06/29 08:05:39;;;;;;;;;;;23.50;65.20;;;;;;5067862;28;20317;-87
2023/06/29 08:08:05;;;;;;;;;;;23.50;65.50;;;;;;5068401;28;19982;-88
2023/06/29 08:10:30;;;;;;;;;;;23.60;65.50;;;;;;5051418;28;19916;-89
2023/06/29 08:12:56;;;;;;;;;;;23.80;65.50;;;;;;5056031;28;19912;-88
2023/06/29 08:15:22;;;;;;;;;;;23.80;65.50;;;;;;5066933;28;20007;-89
2023/06/29 08:17:47;;;;;;;;;;;24.00;63.50;;;;;;5053450;28;19971;-87
2023/06/29 08:20:15;;;;;;;;;;;24.00;62.30;;;;;;5054058;28;19916;-88
2023/06/29 08:22:45;;;;;;;;;;;24.10;62.30;;;;;;5056193;28;20307;-88
2023/06/29 08:25:12;;;;;;;;;;;24.00;62.00;;;;;;5054446;28;19916;-88
2023/06/29 08:27:39;;;;;;;;;;;24.30;61.20;;;;;;5048022;28;20262;-87
2023/06/29 08:30:05;;;;;;;;;;;24.00;63.70;;;;;;5067731;28;19921;-87
2023/06/29 08:32:30;;;;;;;;;;;23.80;63.30;;;;;;5056355;28;19924;-88
2023/06/29 08:35:01;;;;;;;;;;;23.70;64.70;;;;;;5080800;28;20385;-88
2023/06/29 08:37:28;;;;;;;;;;;23.90;64.50;;;;;;5064253;28;20374;-87
2023/06/29 08:39:56;;;;;;;;;;;23.80;63.90;;;;;;5074751;28;19916;-86
2023/06/29 08:42:28;;;;;;;;;;;23.80;62.60;;;;;;5054555;28;19916;-86
2023/06/29 08:44:53;;;;;;;;;;;23.90;62.40;;;;;;5053802;28;19919;-86
2023/06/29 08:47:20;;;;;;;;;;;23.80;62.40;;;;;;5065996;28;19912;-86
2023/06/29 08:49:46;;;;;;;;;;;23.90;62.00;;;;;;5063726;28;20374;-87
2023/06/29 08:52:15;;;;;;;;;;;24.00;62.30;;;;;;5044309;28;19916;-88
2023/06/29 08:54:41;;;;;;;;;;;23.90;63.20;;;;;;5045822;28;20007;-85
2023/06/29 08:57:06;;;;;;;;;;;24.00;62.30;;;;;;5048986;28;20023;-87
2023/06/29 08:59:32;;;;;;;;;;;24.10;62.30;;;;;;5054710;28;20385;-85
2023/06/29 09:01:58;;;;;;;;;;;24.20;61.00;;;;;;5051159;28;19948;-84
2023/06/29 09:04:26;;;;;;;;;;;24.30;60.60;;;;;;5063295;28;19923;-86
2023/06/29 09:06:55;;;;;;;;;;;24.30;59.70;;;;;;5050882;28;19991;-86
2023/06/29 09:09:22;;;;;;;;;;;24.30;59.50;;;;;;5059624;28;19912;-86
2023/06/29 09:11:47;;;;;;;;;;;24.50;59.00;;;;;;5065059;28;20367;-85
2023/06/29 09:14:13;;;;;;;;;;;24.70;58.50;;;;;;5050668;28;19917;-87
2023/06/29 09:16:51;;;;;;;;;;;24.50;58.90;;;;;;5068863;28;19916;-86
2023/06/29 09:19:18;;;;;;;;;;;24.60;58.70;;;;;;5051164;28;20399;-85
2023/06/29 09:21:47;;;;;;;;;;;24.60;59.00;;;;;;5057444;28;19974;-86
2023/06/29 09:24:14;;;;;;;;;;;24.50;58.60;;;;;;5044959;28;19994;-88
2023/06/29 09:26:40;;;;;;;;;;;24.40;60.10;;;;;;5047986;28;19913;-87
2023/06/29 09:29:05;;;;;;;;;;;24.50;59.90;;;;;;5050281;28;19919;-87
2023/06/29 09:31:33;;;;;;;;;;;24.40;61.40;;;;;;5041751;28;19993;-87
2023/06/29 09:34:18;;;;;;;;;;;24.50;60.50;;;;;;5069673;28;19908;-87
2023/06/29 09:36:44;;;;;;;;;;;24.50;59.80;;;;;;5059745;28;19948;-87
2023/06/29 09:39:10;;;;;;;;;;;24.80;60.50;;;;;;5064016;28;20035;-88
2023/06/29 09:41:47;;;;;;;;;;;24.90;59.60;;;;;;5067203;28;19912;-86
2023/06/29 09:44:19;;;;;;;;;;;24.90;58.80;;;;;;5060969;28;20335;-85
2023/06/29 09:46:45;;;;;;;;;;;24.80;59.70;;;;;;5064508;28;19915;-85
2023/06/29 09:49:10;;;;;;;;;;;24.70;58.50;;;;;;5053880;28;20604;-85
2023/06/29 09:51:36;;;;;;;;;;;24.60;59.00;;;;;;5062520;28;19913;-85
2023/06/29 09:54:05;;;;;;;;;;;24.70;59.40;;;;;;5052351;28;19944;-85
2023/06/29 09:56:33;;;;;;;;;;;24.60;59.40;;;;;;5059599;28;19917;-84
2023/06/29 09:59:00;;;;;;;;;;;24.70;59.20;;;;;;5069826;28;19920;-86
2023/06/29 10:01:28;;;;;;;;;;;24.70;59.80;;;;;;5065655;28;20378;-85
2023/06/29 10:03:54;;;;;;;;;;;24.80;59.20;;;;;;5062234;28;19959;-85
2023/06/29 10:06:21;;;;;;;;;;;24.80;59.80;;;;;;5051328;28;19916;-85
2023/06/29 10:08:50;;;;;;;;;;;24.80;60.40;;;;;;5059433;28;19913;-85
2023/06/29 10:11:16;;;;;;;;;;;24.90;61.90;;;;;;5075344;28;19984;-85
2023/06/29 10:13:46;;;;;;;;;;;24.80;59.80;;;;;;5056795;28;19940;-86
2023/06/29 10:16:12;;;;;;;;;;;24.50;60.20;;;;;;5049742;28;19995;-85
2023/06/29 10:18:40;;;;;;;;;;;24.40;59.80;;;;;;5071231;28;19966;-85
2023/06/29 10:21:06;;;;;;;;;;;24.20;60.80;;;;;;5055487;28;19936;-87
2023/06/29 10:23:33;;;;;;;;;;;24.10;61.60;;;;;;5067238;28;19917;-88
2023/06/29 10:26:00;;;;;;;;;;;24.10;62.10;;;;;;5054842;28;19913;-88
2023/06/29 10:28:30;;;;;;;;;;;24.00;61.80;;;;;;5051030;28;19909;-88
2023/06/29 10:30:59;;;;;;;;;;;23.90;61.70;;;;;;5070521;28;19916;-88
2023/06/29 10:33:26;;;;;;;;;;;23.90;62.70;;;;;;5069424;28;19912;-88
2023/06/29 10:35:54;;;;;;;;;;;23.90;63.90;;;;;;5071567;28;19995;-87
2023/06/29 10:38:20;;;;;;;;;;;23.90;63.30;;;;;;5054865;28;19916;-88
2023/06/29 10:40:48;;;;;;;;;;;23.90;61.80;;;;;;5072089;28;20332;-87
2023/06/29 10:43:14;;;;;;;;;;;24.00;61.60;;;;;;5070884;28;20011;-88
2023/06/29 10:45:40;;;;;;;;;;;24.00;61.30;;;;;;5069798;28;19999;-85
2023/06/29 10:48:10;;;;;;;;;;;24.00;61.90;;;;;;5051036;28;19917;-85
2023/06/29 10:50:40;;;;;;;;;;;24.00;62.00;;;;;;5072392;28;19920;-86
2023/06/29 10:53:07;;;;;;;;;;;24.10;61.40;;;;;;5068696;28;20901;-85
2023/06/29 10:55:40;;;;;;;;;;;24.00;61.20;;;;;;5052130;28;20004;-86
2023/06/29 10:58:17;;;;;;;;;;;24.00;61.70;;;;;;5071475;28;19912;-85
2023/06/29 11:00:43;;;;;;;;;;;24.00;62.70;;;;;;5070074;28;20424;-84
2023/06/29 11:03:09;;;;;;;;;;;24.00;62.70;;;;;;5070796;28;20003;-85
2023/06/29 11:05:35;;;;;;;;;;;24.20;61.70;;;;;;5054713;28;19917;-85
2023/06/29 11:08:00;;;;;;;;;;;24.30;62.20;;;;;;5071860;28;20378;-83
2023/06/29 11:10:26;;;;;;;;;;;24.60;61.20;;;;;;5076637;28;19912;-85
2023/06/29 11:12:54;;;;;;;;;;;24.60;61.20;;;;;;5081644;28;20327;-85
2023/06/29 11:15:21;;;;;;;;;;;24.80;61.10;;;;;;5072746;28;19959;-85
2023/06/29 11:17:48;;;;;;;;;;;25.10;59.90;;;;;;5070272;28;21369;-85
2023/06/29 11:20:15;;;;;;;;;;;25.10;59.30;;;;;;5066582;28;19935;-84
2023/06/29 11:22:41;;;;;;;;;;;25.30;59.70;;;;;;5072225;28;20249;-85
2023/06/29 11:25:07;;;;;;;;;;;25.50;58.90;;;;;;5056083;28;19920;-86
2023/06/29 11:27:35;;;;;;;;;;;25.50;57.90;;;;;;5073334;28;19966;-85
2023/06/29 11:30:04;;;;;;;;;;;25.50;58.50;;;;;;5055633;28;19942;-86
2023/06/29 11:32:49;;;;;;;;;;;25.50;60.00;;;;;;5054293;28;19913;-85
2023/06/29 11:35:14;;;;;;;;;;;25.60;59.10;;;;;;5047745;28;20366;-86
2023/06/29 11:37:40;;;;;;;;;;;25.80;58.00;;;;;;5056902;28;19944;-86
2023/06/29 11:40:16;;;;;;;;;;;25.80;57.70;;;;;;5070092;28;19913;-88
2023/06/29 11:42:41;;;;;;;;;;;25.60;57.00;;;;;;5069687;28;19920;-86
2023/06/29 11:45:10;;;;;;;;;;;25.80;57.00;;;;;;5058727;28;19978;-86
2023/06/29 11:47:56;;;;;;;;;;;25.70;55.90;;;;;;5061734;28;19925;-87
2023/06/29 11:50:23;;;;;;;;;;;25.80;56.80;;;;;;5069726;28;20378;-85
2023/06/29 11:52:49;;;;;;;;;;;25.80;56.40;;;;;;5065521;28;21518;-85
2023/06/29 11:55:15;;;;;;;;;;;25.80;56.60;;;;;;5059318;28;19916;-87
2023/06/29 11:57:41;;;;;;;;;;;25.90;57.70;;;;;;5069061;28;20050;-89
2023/06/29 12:00:34;;;;;;;;;;;26.00;56.90;;;;;;5064361;28;19913;-89
2023/06/29 12:03:05;;;;;;;;;;;26.00;55.50;;;;;;5000566;22;19930;-81
2023/06/29 12:05:31;;;;;;;;;;;26.00;56.40;;;;;;5032396;28;20337;-81
2023/06/29 12:08:03;;;;;;;;;;;26.00;54.90;;;;;;4975200;28;19925;-79
2023/06/29 12:10:28;;;;;;;;;;;26.10;55.90;;;;;;4960921;28;19918;-80
2023/06/29 12:12:59;;;;;;;;;;;26.10;54.50;;;;;;4972046;28;19922;-81
2023/06/29 12:15:28;;;;;;;;;;;26.10;55.00;;;;;;4966047;28;19914;-80
2023/06/29 12:18:12;;;;;;;;;;;26.20;54.50;;;;;;4972226;28;19936;-79
2023/06/29 12:20:39;;;;;;;;;;;26.10;55.00;;;;;;4948479;28;19926;-82
2023/06/29 12:23:04;;;;;;;;;;;25.90;55.20;;;;;;4959142;28;19922;-79
2023/06/29 12:25:30;;;;;;;;;;;25.90;55.30;;;;;;4954559;28;19929;-79
2023/06/29 12:27:55;;;;;;;;;;;25.60;56.00;;;;;;4972262;28;19914;-82
2023/06/29 12:30:21;;;;;;;;;;;25.50;56.50;;;;;;4956217;28;19936;-88
2023/06/29 12:32:47;;;;;;;;;;;25.30;56.90;;;;;;4971201;28;19910;-86
2023/06/29 12:35:13;;;;;;;;;;;25.10;57.20;;;;;;4972080;28;19914;-85
2023/06/29 12:37:38;;;;;;;;;;;25.00;57.90;;;;;;4960627;28;19929;-86
2023/06/29 12:40:07;;;;;;;;;;;24.80;59.00;;;;;;4963613;28;19972;-86
2023/06/29 12:42:33;;;;;;;;;;;24.50;65.70;;;;;;4962345;28;19914;-85
2023/06/29 12:44:59;;;;;;;;;;;24.10;68.90;;;;;;4961179;28;19921;-86
2023/06/29 12:47:24;;;;;;;;;;;23.40;72.80;;;;;;4962410;28;19960;-85
2023/06/29 12:49:51;;;;;;;;;;;23.00;75.80;;;;;;4963916;28;19960;-87
2023/06/29 12:52:20;;;;;;;;;;;22.80;76.90;;;;;;4972267;28;23173;-85
2023/06/29 12:54:45;;;;;;;;;;;22.50;78.00;;;;;;4963369;28;19918;-86
2023/06/29 12:57:12;;;;;;;;;;;22.50;78.60;;;;;;4977279;28;19926;-85
2023/06/29 12:59:38;;;;;;;;;;;22.30;78.70;;;;;;4961170;28;19914;-85
2023/06/29 13:02:06;;;;;;;;;;;22.30;79.30;;;;;;4973597;28;19918;-87
2023/06/29 13:04:34;;;;;;;;;;;22.20;79.50;;;;;;4965896;28;19914;-86
2023/06/29 13:06:59;;;;;;;;;;;22.30;80.10;;;;;;4981642;28;19986;-86
2023/06/29 13:09:25;;;;;;;;;;;22.30;80.40;;;;;;4968530;28;20411;-87
2023/06/29 13:11:50;;;;;;;;;;;22.50;80.30;;;;;;4969198;28;19918;-86
2023/06/29 13:14:16;;;;;;;;;;;22.70;79.60;;;;;;4967894;28;20281;-86
2023/06/29 13:16:41;;;;;;;;;;;22.80;79.00;;;;;;4970023;28;19914;-86
2023/06/29 13:19:07;;;;;;;;;;;23.00;78.60;;;;;;4970891;28;19937;-86
2023/06/29 13:21:34;;;;;;;;;;;23.20;78.30;;;;;;4967176;28;19958;-85
2023/06/29 13:24:00;;;;;;;;;;;23.30;78.30;;;;;;5048081;28;20344;-86
2023/06/29 13:26:27;;;;;;;;;;;23.50;76.50;;;;;;4963609;28;20054;-87
2023/06/29 13:28:53;;;;;;;;;;;23.70;75.10;;;;;;4963304;28;19910;-87
2023/06/29 13:31:18;;;;;;;;;;;24.00;74.30;;;;;;4984659;28;20021;-87
2023/06/29 13:33:44;;;;;;;;;;;24.20;73.90;;;;;;4969088;28;19910;-87
2023/06/29 13:36:09;;;;;;;;;;;24.20;73.00;;;;;;4957526;28;20009;-87
2023/06/29 13:38:35;;;;;;;;;;;24.40;72.30;;;;;;4966420;28;19911;-87
2023/06/29 13:41:00;;;;;;;;;;;24.30;70.60;;;;;;4967036;28;19910;-87
2023/06/29 13:43:26;;;;;;;;;;;24.40;69.90;;;;;;4969335;28;19919;-87
2023/06/29 13:45:51;;;;;;;;;;;24.30;70.00;;;;;;4983522;28;20338;-86
2023/06/29 13:48:17;;;;;;;;;;;24.30;70.10;;;;;;4967602;28;20290;-87
2023/06/29 13:50:42;;;;;;;;;;;24.20;69.90;;;;;;4965897;28;20427;-87
2023/06/29 13:53:08;;;;;;;;;;;24.20;69.30;;;;;;4963755;28;19915;-87
2023/06/29 13:55:33;;;;;;;;;;;24.10;69.20;;;;;;4974616;28;19940;-87
2023/06/29 13:58:00;;;;;;;;;;;24.10;68.70;;;;;;4981120;28;19964;-87
2023/06/29 14:00:25;;;;;;;;;;;24.30;68.80;;;;;;4979624;28;20386;-88
2023/06/29 14:02:51;;;;;;;;;;;24.40;68.90;;;;;;4962032;28;19919;-86
2023/06/29 14:05:20;;;;;;;;;;;24.50;67.50;;;;;;4964286;28;20395;-87
2023/06/29 14:07:49;;;;;;;;;;;24.50;67.50;;;;;;4955584;28;20351;-89
2023/06/29 14:10:14;;;;;;;;;;;24.50;67.00;;;;;;4959601;28;19914;-87
2023/06/29 14:12:41;;;;;;;;;;;24.50;65.90;;;;;;4956581;28;19944;-88
2023/06/29 14:15:08;;;;;;;;;;;24.50;66.00;;;;;;4969049;28;19914;-88
2023/06/29 14:17:34;;;;;;;;;;;24.70;66.50;;;;;;4989290;28;19914;-88
2023/06/29 14:19:59;;;;;;;;;;;25.00;65.70;;;;;;4965558;28;20048;-88
2023/06/29 14:22:25;;;;;;;;;;;25.10;64.00;;;;;;4963941;28;20000;-88
2023/06/29 14:24:50;;;;;;;;;;;25.10;64.40;;;;;;4991610;28;19915;-89
2023/06/29 14:27:18;;;;;;;;;;;25.20;63.40;;;;;;4975689;28;19967;-89
2023/06/29 14:29:44;;;;;;;;;;;25.20;62.80;;;;;;4958282;28;19914;-90
2023/06/29 14:32:12;;;;;;;;;;;25.10;63.60;;;;;;4968178;28;19921;-88
2023/06/29 14:34:38;;;;;;;;;;;25.00;64.30;;;;;;4968428;28;19967;-87
2023/06/29 14:37:03;;;;;;;;;;;24.90;63.80;;;;;;4967782;28;20000;-86
2023/06/29 14:39:29;;;;;;;;;;;24.90;64.30;;;;;;4962437;28;19918;-88
2023/06/29 14:41:55;;;;;;;;;;;24.90;63.60;;;;;;4956252;28;19914;-90
2023/06/29 14:44:25;;;;;;;;;;;24.90;63.80;;;;;;4965351;28;19921;-90
2023/06/29 14:46:50;;;;;;;;;;;25.00;64.20;;;;;;4966508;28;19918;-87
2023/06/29 14:49:17;;;;;;;;;;;25.00;63.20;;;;;;4981763;28;19914;-87
2023/06/29 14:51:42;;;;;;;;;;;25.00;63.80;;;;;;4980141;28;19915;-87
2023/06/29 14:54:08;;;;;;;;;;;24.90;63.40;;;;;;4963589;28;19906;-88
2023/06/29 14:56:34;;;;;;;;;;;24.90;63.20;;;;;;4969180;28;19977;-87
2023/06/29 14:59:00;;;;;;;;;;;25.10;63.40;;;;;;4957351;28;19981;-90